Time;durP1;ratioP1;P1;durP2;ratioP2;P2;SDS_P1;SDS_P2;PMS_P1;PMS_P2;Temp;Humidity;BMP_temperature;BMP_pressure;BME280_temperature;BME280_humidity;BME280_pressure;Samples;Min_cycle;Max_cycle;Signal;HPM_P1;HPM_P2
2021/06/21 00:01:39;;;;;;;2.40;1.70;;;22.70;69.60;;;;;;5074701;28;20025;-75
2021/06/21 00:04:05;;;;;;;11.10;1.92;;;22.70;69.60;;;;;;5074027;28;20043;-75
2021/06/21 00:06:31;;;;;;;1.83;1.67;;;22.70;69.70;;;;;;5074079;28;20409;-75
2021/06/21 00:08:56;;;;;;;4.32;1.70;;;22.70;69.80;;;;;;5072623;28;20025;-75
2021/06/21 00:11:22;;;;;;;3.88;2.10;;;22.60;69.80;;;;;;5074230;28;20024;-75
2021/06/21 00:13:48;;;;;;;2.75;2.00;;;22.60;69.80;;;;;;5073797;28;20475;-76
2021/06/21 00:16:14;;;;;;;4.25;2.20;;;22.60;69.90;;;;;;5072749;28;20107;-76
2021/06/21 00:18:39;;;;;;;3.08;1.92;;;22.60;69.90;;;;;;5079606;28;20033;-75
2021/06/21 00:21:06;;;;;;;2.15;1.95;;;22.60;69.90;;;;;;5073780;28;20111;-75
2021/06/21 00:23:32;;;;;;;7.30;2.00;;;22.60;70.00;;;;;;5074027;28;20040;-75
2021/06/21 00:25:57;;;;;;;4.38;1.88;;;22.60;70.00;;;;;;5073711;28;20389;-74
2021/06/21 00:28:23;;;;;;;5.72;1.95;;;22.60;70.00;;;;;;5073827;28;20135;-75
2021/06/21 00:30:49;;;;;;;3.15;1.95;;;22.60;70.10;;;;;;5073756;28;20035;-76
2021/06/21 00:33:15;;;;;;;2.15;1.77;;;22.60;70.20;;;;;;5073560;28;20115;-74
2021/06/21 00:35:41;;;;;;;3.35;1.90;;;22.60;70.30;;;;;;5073482;28;20448;-75
2021/06/21 00:38:08;;;;;;;4.20;2.10;;;22.50;70.30;;;;;;5073782;28;20059;-75
2021/06/21 00:40:35;;;;;;;3.95;1.80;;;22.50;70.40;;;;;;5073863;28;20107;-75
2021/06/21 00:43:02;;;;;;;4.03;2.25;;;22.50;70.50;;;;;;5073723;28;20107;-75
2021/06/21 00:45:28;;;;;;;3.75;1.90;;;22.50;70.60;;;;;;5073520;28;20379;-75
2021/06/21 00:47:54;;;;;;;4.60;1.90;;;22.50;70.70;;;;;;5073736;28;20023;-76
2021/06/21 00:50:22;;;;;;;3.80;2.20;;;22.40;70.70;;;;;;5073931;28;20020;-75
2021/06/21 00:52:52;;;;;;;3.45;2.08;;;22.40;70.80;;;;;;5073649;28;20024;-76
2021/06/21 00:55:17;;;;;;;2.42;2.17;;;22.40;71.00;;;;;;5073990;28;20112;-75
2021/06/21 00:57:43;;;;;;;3.88;1.75;;;22.40;71.10;;;;;;5088655;28;20139;-75
2021/06/21 01:00:18;;;;;;;6.25;2.10;;;22.40;71.20;;;;;;5072331;28;20052;-75
2021/06/21 01:02:44;;;;;;;6.43;2.03;;;22.40;71.40;;;;;;5073623;28;20086;-75
2021/06/21 01:05:14;;;;;;;5.18;2.00;;;22.40;71.40;;;;;;5073282;28;20072;-75
2021/06/21 01:07:41;;;;;;;3.28;1.90;;;22.40;71.60;;;;;;5089052;28;20029;-75
2021/06/21 01:10:08;;;;;;;5.00;2.45;;;22.30;71.60;;;;;;5073360;28;20029;-75
2021/06/21 01:12:46;;;;;;;4.20;2.00;;;22.30;71.60;;;;;;5073571;28;20405;-75
2021/06/21 01:15:14;;;;;;;4.50;2.28;;;22.30;71.60;;;;;;5073371;28;20036;-75
2021/06/21 01:17:51;;;;;;;2.83;2.00;;;22.30;71.50;;;;;;5073447;28;20025;-75
2021/06/21 01:20:27;;;;;;;2.28;2.08;;;22.20;71.40;;;;;;5073460;28;20068;-75
2021/06/21 01:23:02;;;;;;;6.95;2.50;;;22.30;71.40;;;;;;5073588;28;20025;-75
2021/06/21 01:25:37;;;;;;;4.20;2.25;;;22.20;71.30;;;;;;5073569;28;20075;-75
2021/06/21 01:28:05;;;;;;;;;;;22.20;71.30;;;;;;5073650;28;20028;-75
2021/06/21 01:31:03;;;;;;;7.03;2.22;;;22.20;71.00;;;;;;5073242;28;19904;-75
2021/06/21 01:33:31;;;;;;;4.65;1.90;;;22.10;71.10;;;;;;5073166;28;20493;-75
2021/06/21 01:36:00;;;;;;;3.88;2.10;;;22.10;71.20;;;;;;5073299;28;20075;-75
2021/06/21 01:38:30;;;;;;;3.80;2.40;;;22.10;71.30;;;;;;5073094;28;20462;-75
2021/06/21 01:40:59;;;;;;;7.97;2.42;;;22.10;71.50;;;;;;5075694;28;20062;-75
2021/06/21 01:43:33;;;;;;;2.40;2.20;;;22.00;71.50;;;;;;5076851;28;20036;-75
2021/06/21 01:46:04;;;;;;;6.78;2.25;;;22.00;71.60;;;;;;5076960;28;20052;-75
2021/06/21 01:48:31;;;;;;;6.30;2.72;;;22.00;71.70;;;;;;5076886;28;20028;-75
2021/06/21 01:51:00;;;;;;;4.03;2.50;;;22.00;71.90;;;;;;5077611;28;20056;-75
2021/06/21 01:53:31;;;;;;;4.65;2.38;;;22.00;72.00;;;;;;5097208;28;20378;-75
2021/06/21 01:56:04;;;;;;;4.03;2.15;;;22.00;72.10;;;;;;5097345;28;20024;-76
2021/06/21 01:58:33;;;;;;;3.45;2.08;;;22.00;72.20;;;;;;5097051;28;20052;-75
2021/06/21 02:01:01;;;;;;;4.95;2.40;;;22.00;72.40;;;;;;5096990;28;20016;-75
2021/06/21 02:03:29;;;;;;;4.13;2.42;;;21.90;72.40;;;;;;5097031;28;20036;-75
2021/06/21 02:05:55;;;;;;;4.47;2.80;;;21.90;72.40;;;;;;5096603;28;20389;-76
2021/06/21 02:08:22;;;;;;;4.68;2.67;;;22.00;72.50;;;;;;5095782;28;20062;-75
2021/06/21 02:10:53;;;;;;;6.28;2.53;;;22.00;72.50;;;;;;5096891;28;20465;-75
2021/06/21 02:13:24;;;;;;;5.93;2.65;;;22.00;72.40;;;;;;5096789;28;20032;-75
2021/06/21 02:15:54;;;;;;;9.38;3.00;;;22.00;72.40;;;;;;5096705;28;20024;-75
2021/06/21 02:18:20;;;;;;;3.67;2.70;;;22.00;72.40;;;;;;5096906;28;20035;-75
2021/06/21 02:20:47;;;;;;;4.55;2.67;;;22.00;72.40;;;;;;5096632;28;20063;-75
2021/06/21 02:23:15;;;;;;;2.75;2.38;;;22.00;72.40;;;;;;5085702;28;20391;-75
2021/06/21 02:25:42;;;;;;;3.47;2.60;;;22.10;72.40;;;;;;5075939;28;20557;-75
2021/06/21 02:28:08;;;;;;;6.07;2.50;;;22.10;72.30;;;;;;5076113;28;20028;-75
2021/06/21 02:30:36;;;;;;;3.63;2.42;;;22.10;72.40;;;;;;5075838;28;20063;-75
2021/06/21 02:33:02;;;;;;;6.18;2.60;;;22.10;72.40;;;;;;5076307;28;20540;-75
2021/06/21 02:35:28;;;;;;;3.88;2.67;;;22.20;72.40;;;;;;5075821;28;20035;-75
2021/06/21 02:37:54;;;;;;;5.50;2.70;;;22.20;72.40;;;;;;5076091;28;20020;-79
2021/06/21 02:40:19;;;;;;;4.80;2.33;;;22.20;72.50;;;;;;5075700;28;20060;-75
2021/06/21 02:42:45;;;;;;;5.70;2.60;;;22.30;72.50;;;;;;5076044;28;20036;-75
2021/06/21 02:45:12;;;;;;;6.22;2.38;;;22.30;72.50;;;;;;5075725;28;20033;-75
2021/06/21 02:47:39;;;;;;;4.38;2.42;;;22.40;72.50;;;;;;5076039;28;20132;-75
2021/06/21 02:50:07;;;;;;;3.75;1.90;;;22.40;72.30;;;;;;5075925;28;20025;-75
2021/06/21 02:52:58;;;;;;;6.75;2.75;;;22.40;72.10;;;;;;5075532;28;20033;-76
2021/06/21 02:55:35;;;;;;;5.20;2.10;;;22.50;72.10;;;;;;5075898;28;20016;-75
2021/06/21 02:58:24;;;;;;;4.13;2.30;;;22.50;72.00;;;;;;5075704;28;20052;-75
2021/06/21 03:00:52;;;;;;;2.30;2.10;;;22.60;71.90;;;;;;5075375;28;20024;-75
2021/06/21 03:03:22;;;;;;;4.05;2.33;;;22.70;72.00;;;;;;5075119;28;20036;-75
2021/06/21 03:05:50;;;;;;;2.28;2.13;;;22.60;71.90;;;;;;5075269;28;20032;-75
2021/06/21 03:08:18;;;;;;;8.00;2.10;;;22.70;71.80;;;;;;5075407;28;20028;-75
2021/06/21 03:10:44;;;;;;;4.78;2.50;;;22.70;71.60;;;;;;5075738;28;20032;-75
2021/06/21 03:13:12;;;;;;;6.22;2.40;;;22.80;71.60;;;;;;5075632;28;20032;-75
2021/06/21 03:15:39;;;;;;;5.53;2.38;;;22.80;71.60;;;;;;5075404;28;20032;-75
2021/06/21 03:18:05;;;;;;;6.65;2.53;;;22.80;71.50;;;;;;5075365;28;20024;-75
2021/06/21 03:20:32;;;;;;;6.35;2.30;;;22.90;71.40;;;;;;5075288;28;20028;-75
2021/06/21 03:23:00;;;;;;;2.80;2.13;;;22.90;71.30;;;;;;5075416;28;20033;-76
2021/06/21 03:25:28;;;;;;;4.10;2.42;;;23.00;71.20;;;;;;5074830;28;20036;-75
2021/06/21 03:27:54;;;;;;;3.42;2.10;;;23.00;71.20;;;;;;5075142;28;20030;-75
2021/06/21 03:30:22;;;;;;;3.25;2.33;;;23.00;71.10;;;;;;5075033;28;20033;-75
2021/06/21 03:32:51;;;;;;;6.30;2.38;;;23.10;71.10;;;;;;5075288;28;20024;-75
2021/06/21 03:35:17;;;;;;;5.90;2.20;;;23.10;71.00;;;;;;5090376;28;20451;-75
2021/06/21 03:37:43;;;;;;;3.60;2.45;;;23.20;71.10;;;;;;5077384;28;20356;-75
2021/06/21 03:40:10;;;;;;;2.03;1.83;;;23.20;71.10;;;;;;5074775;28;20027;-75
2021/06/21 03:42:37;;;;;;;2.83;2.15;;;23.20;71.10;;;;;;5074712;28;20078;-75
2021/06/21 03:45:04;;;;;;;2.72;2.30;;;23.30;71.10;;;;;;5074272;28;20036;-75
2021/06/21 03:47:30;;;;;;;2.85;2.40;;;23.40;71.10;;;;;;5074992;28;20081;-75
2021/06/21 03:49:56;;;;;;;3.78;2.60;;;23.50;70.90;;;;;;5074613;28;20024;-75
2021/06/21 03:52:21;;;;;;;3.20;2.20;;;23.60;70.60;;;;;;5074518;28;20382;-75
2021/06/21 03:54:48;;;;;;;3.70;2.45;;;23.60;70.10;;;;;;5082170;28;20111;-75
2021/06/21 03:57:14;;;;;;;4.32;2.40;;;23.70;69.60;;;;;;5095111;28;20054;-75
2021/06/21 03:59:40;;;;;;;5.90;2.50;;;23.70;69.10;;;;;;5095221;28;20036;-75
2021/06/21 04:02:06;;;;;;;6.28;2.47;;;23.80;69.00;;;;;;5094337;28;20031;-76
2021/06/21 04:04:32;;;;;;;2.08;1.92;;;23.90;68.70;;;;;;5094506;28;20033;-75
2021/06/21 04:06:57;;;;;;;5.88;2.20;;;23.90;68.50;;;;;;5087822;28;20044;-75
2021/06/21 04:09:23;;;;;;;2.72;2.22;;;23.90;68.40;;;;;;5094484;28;20074;-75
2021/06/21 04:11:50;;;;;;;2.92;2.42;;;24.00;68.50;;;;;;5094205;28;20035;-75
2021/06/21 04:14:16;;;;;;;6.85;2.80;;;24.00;68.40;;;;;;5094769;28;20027;-75
2021/06/21 04:16:42;;;;;;;5.72;2.42;;;24.00;68.30;;;;;;5094326;28;20538;-75
2021/06/21 04:19:08;;;;;;;3.60;2.60;;;24.10;68.20;;;;;;5094020;28;20106;-75
2021/06/21 04:21:34;;;;;;;7.72;2.60;;;24.20;67.90;;;;;;5094356;28;20048;-75
2021/06/21 04:24:00;;;;;;;5.72;2.40;;;24.20;67.60;;;;;;5093967;28;20064;-75
2021/06/21 04:26:25;;;;;;;3.53;3.00;;;24.20;67.70;;;;;;5094471;28;20489;-75
2021/06/21 04:28:51;;;;;;;2.65;2.45;;;24.30;67.70;;;;;;5094239;28;20028;-75
2021/06/21 04:31:18;;;;;;;3.38;2.22;;;24.30;67.60;;;;;;5094100;28;20107;-75
2021/06/21 04:33:45;;;;;;;9.55;3.00;;;24.40;67.60;;;;;;5093942;28;20092;-75
2021/06/21 04:36:10;;;;;;;6.45;2.55;;;24.40;67.50;;;;;;5093610;28;20461;-75
2021/06/21 04:38:38;;;;;;;6.50;3.17;;;24.50;67.60;;;;;;5093968;28;20098;-75
2021/06/21 04:41:04;;;;;;;4.72;2.45;;;24.60;67.70;;;;;;5093508;28;20031;-75
2021/06/21 04:43:29;;;;;;;6.40;2.60;;;24.60;67.50;;;;;;5093584;28;20035;-74
2021/06/21 04:45:55;;;;;;;3.13;2.50;;;24.70;67.30;;;;;;5094108;28;20024;-74
2021/06/21 04:48:21;;;;;;;4.35;2.50;;;24.70;66.80;;;;;;5075995;28;20033;-74
2021/06/21 04:50:47;;;;;;;5.00;2.50;;;24.80;66.70;;;;;;5072418;28;20024;-74
2021/06/21 04:53:13;;;;;;;4.85;2.30;;;24.90;66.50;;;;;;5073624;28;20029;-75
2021/06/21 04:55:40;;;;;;;3.65;2.80;;;24.90;66.30;;;;;;5073735;28;20020;-75
2021/06/21 04:58:06;;;;;;;5.38;2.83;;;24.90;66.20;;;;;;5073871;28;20438;-75
2021/06/21 05:00:32;;;;;;;4.85;2.60;;;24.90;66.20;;;;;;5073705;28;20063;-75
2021/06/21 05:02:57;;;;;;;3.63;2.50;;;25.00;66.50;;;;;;5062576;28;20041;-75
2021/06/21 05:05:23;;;;;;;5.65;2.80;;;25.00;66.50;;;;;;5061517;28;20055;-76
2021/06/21 05:07:52;;;;;;;5.95;2.90;;;25.10;66.40;;;;;;5063933;28;20031;-75
2021/06/21 05:10:22;;;;;;;5.05;3.03;;;25.10;66.40;;;;;;5062139;28;20061;-76
2021/06/21 05:12:48;;;;;;;10.73;2.80;;;25.20;66.40;;;;;;5061854;28;20031;-75
2021/06/21 05:15:15;;;;;;;5.15;2.75;;;25.20;66.20;;;;;;5062610;28;20032;-75
2021/06/21 05:17:41;;;;;;;4.40;2.63;;;25.30;65.90;;;;;;5063884;28;20043;-75
2021/06/21 05:20:09;;;;;;;4.60;2.83;;;25.40;66.00;;;;;;5058253;28;20072;-76
2021/06/21 05:22:36;;;;;;;6.78;2.80;;;25.40;66.10;;;;;;5053017;28;20421;-75
2021/06/21 05:25:03;;;;;;;8.88;2.78;;;25.50;66.20;;;;;;5053296;28;20033;-75
2021/06/21 05:27:30;;;;;;;3.80;2.72;;;25.60;66.30;;;;;;5053129;28;20028;-75
2021/06/21 05:29:57;;;;;;;9.60;3.20;;;25.70;66.30;;;;;;5052003;28;20408;-75
2021/06/21 05:32:23;;;;;;;7.13;2.83;;;25.70;66.20;;;;;;5052908;28;20060;-76
2021/06/21 05:34:49;;;;;;;4.15;2.80;;;25.70;66.00;;;;;;5052930;28;20078;-75
2021/06/21 05:37:15;;;;;;;6.85;3.20;;;25.80;65.90;;;;;;5052886;28;20025;-76
2021/06/21 05:39:40;;;;;;;10.48;3.55;;;25.90;65.90;;;;;;5053284;28;20024;-75
2021/06/21 05:42:06;;;;;;;6.90;2.90;;;25.90;65.70;;;;;;5053699;28;20057;-75
2021/06/21 05:44:33;;;;;;;6.72;2.90;;;25.90;65.40;;;;;;5053493;28;20486;-74
2021/06/21 05:46:58;;;;;;;7.13;3.30;;;25.90;65.20;;;;;;5053101;28;20028;-74
2021/06/21 05:49:24;;;;;;;4.45;2.78;;;25.90;65.20;;;;;;5053008;28;20132;-75
2021/06/21 05:51:50;;;;;;;5.68;3.15;;;25.90;65.30;;;;;;5052887;28;20451;-75
2021/06/21 05:54:16;;;;;;;5.57;2.92;;;26.00;65.30;;;;;;5051638;28;20078;-75
2021/06/21 05:56:42;;;;;;;7.10;2.85;;;26.00;65.20;;;;;;5052459;28;20024;-75
2021/06/21 05:59:07;;;;;;;4.78;2.85;;;26.00;65.20;;;;;;5053013;28;20044;-75
2021/06/21 06:01:33;;;;;;;4.07;3.00;;;26.00;65.20;;;;;;5053173;28;20017;-75
2021/06/21 06:03:59;;;;;;;3.88;3.03;;;26.00;65.30;;;;;;5053443;28;20037;-76
2021/06/21 06:06:24;;;;;;;6.55;3.17;;;26.10;65.50;;;;;;5053302;28;20090;-75
2021/06/21 06:08:50;;;;;;;10.25;3.50;;;26.10;65.30;;;;;;5056125;28;20028;-75
2021/06/21 06:11:16;;;;;;;5.40;3.10;;;26.20;65.20;;;;;;5053302;28;20080;-75
2021/06/21 06:13:42;;;;;;;11.02;4.95;;;26.30;64.90;;;;;;5053795;28;20460;-75
2021/06/21 06:16:08;;;;;;;4.85;3.20;;;26.30;64.70;;;;;;5053255;28;20521;-76
2021/06/21 06:18:35;;;;;;;9.73;3.42;;;26.30;64.60;;;;;;5054343;28;20064;-76
2021/06/21 06:21:01;;;;;;;10.10;3.42;;;26.40;64.50;;;;;;5056380;28;20028;-74
2021/06/21 06:23:26;;;;;;;6.30;3.25;;;26.40;64.20;;;;;;5053122;28;20029;-75
2021/06/21 06:25:52;;;;;;;8.95;3.28;;;26.40;64.20;;;;;;5054763;28;20029;-75
2021/06/21 06:28:18;;;;;;;5.53;3.13;;;26.50;64.20;;;;;;5057181;28;20467;-76
2021/06/21 06:30:44;;;;;;;7.57;3.20;;;26.60;64.20;;;;;;5058287;28;20451;-75
2021/06/21 06:33:09;;;;;;;6.65;3.20;;;26.60;64.00;;;;;;5068180;28;20081;-76
2021/06/21 06:35:35;;;;;;;8.20;3.10;;;26.70;63.60;;;;;;5071668;28;20028;-77
2021/06/21 06:38:01;;;;;;;4.35;3.42;;;26.70;63.50;;;;;;5065822;28;20021;-75
2021/06/21 06:40:26;;;;;;;6.82;3.67;;;26.80;63.30;;;;;;5064047;28;20033;-76
2021/06/21 06:42:54;;;;;;;6.68;3.42;;;26.80;63.10;;;;;;5072365;28;20084;-77
2021/06/21 06:45:21;;;;;;;7.68;3.20;;;26.80;63.30;;;;;;5070317;28;20096;-75
2021/06/21 06:47:48;;;;;;;6.55;3.20;;;26.90;63.30;;;;;;5070590;28;20181;-74
2021/06/21 06:50:14;;;;;;;6.88;3.10;;;27.00;63.20;;;;;;5070634;28;20025;-77
2021/06/21 06:52:41;;;;;;;4.00;3.00;;;27.00;63.00;;;;;;5071927;28;20021;-75
2021/06/21 06:57:52;;;;;;;4.43;3.30;;;27.10;62.40;;;;;;5072575;28;20103;-76
2021/06/21 07:00:18;;;;;;;11.70;3.30;;;27.30;62.40;;;;;;5071908;28;20032;-77
2021/06/21 07:02:45;;;;;;;4.70;3.08;;;27.30;62.10;;;;;;5072710;28;20025;-76
2021/06/21 07:05:11;;;;;;;12.45;3.50;;;27.40;61.60;;;;;;5073404;28;20044;-80
2021/06/21 07:07:37;;;;;;;5.45;3.13;;;27.40;61.30;;;;;;5071406;28;20032;-75
2021/06/21 07:10:04;;;;;;;7.70;3.33;;;27.50;61.20;;;;;;5061700;28;20456;-76
2021/06/21 07:12:30;;;;;;;6.20;2.80;;;27.50;60.90;;;;;;5058763;28;20059;-76
2021/06/21 07:14:56;;;;;;;8.23;3.10;;;27.50;60.80;;;;;;5059210;28;20475;-76
2021/06/21 07:17:21;;;;;;;5.95;3.00;;;27.50;60.60;;;;;;5055515;28;20109;-76
2021/06/21 07:19:47;;;;;;;8.57;3.10;;;27.60;60.30;;;;;;5055442;28;20037;-76
2021/06/21 07:22:13;;;;;;;5.57;3.00;;;27.60;60.40;;;;;;5055645;28;20387;-77
2021/06/21 07:24:38;;;;;;;4.53;2.95;;;27.60;60.10;;;;;;5055040;28;20025;-76
2021/06/21 07:27:05;;;;;;;4.40;3.00;;;27.70;60.00;;;;;;5055264;28;20533;-75
2021/06/21 07:29:31;;;;;;;6.07;2.50;;;27.70;59.60;;;;;;5053908;28;20040;-75
2021/06/21 07:31:57;;;;;;;7.82;3.50;;;27.70;58.80;;;;;;5055010;28;20053;-74
2021/06/21 07:34:23;;;;;;;4.80;3.00;;;27.70;58.70;;;;;;5054793;28;20026;-75
2021/06/21 07:36:49;;;;;;;5.43;2.58;;;27.70;58.40;;;;;;5054459;28;20032;-75
2021/06/21 07:39:15;;;;;;;8.05;3.00;;;27.70;58.10;;;;;;5054995;28;20107;-75
2021/06/21 07:41:41;;;;;;;8.00;3.10;;;27.80;58.50;;;;;;5054915;28;20016;-75
2021/06/21 07:44:06;;;;;;;3.10;2.78;;;27.80;58.00;;;;;;5055013;28;20118;-75
2021/06/21 07:46:33;;;;;;;13.55;3.10;;;27.90;57.70;;;;;;5054680;28;20033;-75
2021/06/21 07:48:59;;;;;;;8.20;2.83;;;28.00;57.20;;;;;;5055005;28;20025;-76
2021/06/21 07:51:25;;;;;;;8.40;3.08;;;28.10;57.00;;;;;;5053489;28;20056;-76
2021/06/21 07:53:52;;;;;;;4.30;2.78;;;28.20;56.60;;;;;;5054366;28;20486;-76
2021/06/21 07:56:20;;;;;;;4.18;2.42;;;28.30;56.20;;;;;;5054624;28;20032;-76
2021/06/21 07:58:46;;;;;;;7.50;3.03;;;28.30;55.50;;;;;;5054989;28;20049;-75
2021/06/21 08:01:12;;;;;;;6.25;2.90;;;28.30;55.50;;;;;;5053319;28;20116;-76
2021/06/21 08:03:39;;;;;;;11.77;3.15;;;28.30;55.80;;;;;;5054516;28;20048;-76
2021/06/21 08:06:08;;;;;;;10.38;3.00;;;28.30;55.90;;;;;;5054284;28;20053;-76
2021/06/21 08:08:35;;;;;;;5.97;3.15;;;28.30;55.90;;;;;;5052969;28;20025;-76
2021/06/21 08:11:02;;;;;;;7.38;3.38;;;28.30;56.10;;;;;;5054462;28;20487;-75
2021/06/21 08:13:27;;;;;;;6.30;2.90;;;28.30;56.00;;;;;;5054185;28;20033;-75
2021/06/21 08:15:53;;;;;;;7.13;3.28;;;28.50;56.20;;;;;;5053118;28;20033;-75
2021/06/21 08:18:19;;;;;;;9.32;3.15;;;28.60;56.00;;;;;;5054324;28;20033;-76
2021/06/21 08:20:45;;;;;;;8.40;2.78;;;28.80;55.80;;;;;;5054085;28;20052;-76
2021/06/21 08:23:13;;;;;;;8.75;3.40;;;29.00;55.40;;;;;;5052967;28;20421;-75
2021/06/21 08:25:40;;;;;;;9.38;3.67;;;29.10;55.80;;;;;;5054038;28;20040;-76
2021/06/21 08:28:06;;;;;;;10.50;3.33;;;29.20;56.00;;;;;;5054520;28;20028;-76
2021/06/21 08:30:32;;;;;;;6.18;3.35;;;29.30;55.40;;;;;;5053828;28;20047;-76
2021/06/21 08:32:58;;;;;;;6.55;3.33;;;29.50;55.40;;;;;;5053952;28;20076;-76
2021/06/21 08:35:24;;;;;;;4.25;3.20;;;29.70;54.80;;;;;;5053974;28;20432;-76
2021/06/21 08:37:50;;;;;;;4.45;2.95;;;29.90;54.00;;;;;;5053454;28;20025;-75
2021/06/21 08:40:16;;;;;;;7.78;3.10;;;30.00;53.70;;;;;;5052735;28;20108;-78
2021/06/21 08:42:42;;;;;;;5.53;3.05;;;30.10;53.60;;;;;;5054010;28;20033;-75
2021/06/21 08:45:09;;;;;;;13.10;3.40;;;30.20;53.40;;;;;;5053247;28;20505;-76
2021/06/21 08:47:36;;;;;;;7.05;3.47;;;30.40;53.60;;;;;;5053697;28;20021;-75
2021/06/21 08:50:07;;;;;;;9.50;3.45;;;30.60;53.70;;;;;;5053431;28;20528;-74
2021/06/21 08:52:33;;;;;;;6.60;3.60;;;30.80;53.90;;;;;;5052201;28;20061;-75
2021/06/21 08:55:03;;;;;;;9.00;3.50;;;31.10;53.90;;;;;;5053879;28;20043;-75
2021/06/21 08:57:34;;;;;;;5.15;3.35;;;31.30;53.50;;;;;;5053421;28;20063;-75
2021/06/21 09:00:00;;;;;;;6.53;3.15;;;31.60;52.90;;;;;;5053243;28;20032;-75
2021/06/21 09:02:29;;;;;;;5.32;2.88;;;31.90;52.40;;;;;;5053488;28;20043;-77
2021/06/21 09:04:55;;;;;;;6.40;3.17;;;32.20;52.20;;;;;;5053569;28;20115;-75
2021/06/21 09:07:23;;;;;;;7.53;3.30;;;32.40;52.00;;;;;;5051858;28;20082;-76
2021/06/21 09:09:51;;;;;;;12.32;3.60;;;32.60;52.10;;;;;;5053763;28;20456;-75
2021/06/21 09:12:30;;;;;;;7.03;3.30;;;33.00;52.00;;;;;;5053208;28;20032;-78
2021/06/21 09:14:59;;;;;;;10.13;4.28;;;33.30;51.70;;;;;;5053527;28;20029;-75
2021/06/21 09:17:29;;;;;;;17.67;4.57;;;33.50;51.20;;;;;;5053392;28;20025;-76
2021/06/21 09:20:00;;;;;;;4.88;3.30;;;33.90;50.80;;;;;;5053469;28;20032;-76
2021/06/21 09:22:38;;;;;;;8.07;3.72;;;34.20;51.00;;;;;;5052006;28;20021;-76
2021/06/21 09:25:08;;;;;;;10.10;3.20;;;34.60;49.70;;;;;;5053313;28;20057;-76
2021/06/21 09:27:35;;;;;;;6.53;3.10;;;34.90;49.20;;;;;;5053379;28;20490;-76
2021/06/21 09:30:10;;;;;;;6.45;3.10;;;35.20;48.90;;;;;;5053481;28;20028;-76
2021/06/21 09:32:46;;;;;;;5.30;3.30;;;35.50;48.40;;;;;;5052242;28;20120;-76
2021/06/21 09:35:31;;;;;;;16.52;3.63;;;35.80;48.30;;;;;;5053251;28;20044;-76
2021/06/21 09:38:01;;;;;;;7.78;3.63;;;36.10;47.80;;;;;;5051818;28;20124;-76
2021/06/21 09:40:51;;;;;;;6.22;3.25;;;36.30;47.40;;;;;;5063574;28;20039;-76
2021/06/21 09:43:18;;;;;;;8.32;3.40;;;36.60;46.70;;;;;;5064912;28;20026;-76
2021/06/21 09:46:05;;;;;;;10.80;3.30;;;37.00;46.50;;;;;;5061619;28;20032;-76
2021/06/21 09:48:42;;;;;;;8.73;3.30;;;37.30;46.10;;;;;;5061298;28;20031;-76
2021/06/21 09:51:17;;;;;;;9.43;3.60;;;37.70;45.80;;;;;;5065077;28;20021;-76
2021/06/21 09:54:10;;;;;;;9.18;3.75;;;38.10;45.50;;;;;;5063463;28;20509;-76
2021/06/21 09:56:37;;;;;;;9.80;3.72;;;38.40;45.00;;;;;;5070317;28;20089;-76
2021/06/21 09:59:25;;;;;;;10.77;3.75;;;38.70;44.40;;;;;;5072589;28;20096;-74
2021/06/21 10:02:04;;;;;;;7.13;3.17;;;38.90;44.00;;;;;;5077035;28;20032;-85
2021/06/21 10:04:31;;;;;;;10.73;3.38;;;39.10;43.50;;;;;;5075288;28;20036;-75
2021/06/21 10:06:57;;;;;;;9.88;3.30;;;39.20;43.40;;;;;;5076361;28;20059;-75
2021/06/21 10:09:23;;;;;;;13.82;3.80;;;39.60;44.00;;;;;;5075405;28;20060;-76
2021/06/21 10:11:49;;;;;;;8.65;4.32;;;39.90;42.70;;;;;;5076346;28;20055;-76
2021/06/21 10:14:20;;;;;;;11.15;3.33;;;40.20;42.50;;;;;;5076424;28;20032;-77
2021/06/21 10:16:48;;;;;;;8.43;3.17;;;40.70;41.50;;;;;;5076312;28;20025;-76
2021/06/21 10:19:15;;;;;;;6.95;2.90;;;41.10;41.10;;;;;;5082721;28;20046;-76
2021/06/21 10:21:43;;;;;;;7.07;3.20;;;41.60;40.30;;;;;;5095908;28;20496;-76
2021/06/21 10:24:09;;;;;;;10.98;3.55;;;42.00;40.00;;;;;;5096631;28;20035;-75
2021/06/21 10:26:38;;;;;;;9.93;3.28;;;42.50;39.70;;;;;;5094064;28;20024;-75
2021/06/21 10:29:04;;;;;;;6.22;3.20;;;42.90;39.20;;;;;;5075975;28;20093;-76
2021/06/21 10:31:32;;;;;;;7.88;3.13;;;43.30;38.70;;;;;;5093563;28;20035;-76
2021/06/21 10:34:03;;;;;;;14.50;3.47;;;43.80;37.90;;;;;;5096395;28;20043;-77
2021/06/21 10:36:52;;;;;;;6.75;3.53;;;44.20;37.20;;;;;;5096005;28;20103;-76
2021/06/21 10:39:29;;;;;;;9.00;3.35;;;44.60;36.60;;;;;;5096430;28;20035;-76
2021/06/21 10:42:25;;;;;;;7.05;3.63;;;44.80;36.10;;;;;;5055050;28;20047;-76
2021/06/21 10:44:54;;;;;;;12.23;3.63;;;45.10;35.80;;;;;;5055676;28;20044;-76
2021/06/21 10:47:29;;;;;;;8.55;3.58;;;45.30;35.60;;;;;;5071042;28;20486;-75
2021/06/21 10:50:07;;;;;;;9.25;4.30;;;45.60;35.10;;;;;;5064343;28;20036;-77
2021/06/21 10:52:53;;;;;;;11.38;4.25;;;45.80;34.90;;;;;;5064179;28;20046;-78
2021/06/21 11:01:13;;;;;;;10.23;4.28;;;45.90;34.50;;;;;;5068103;28;20418;-77
2021/06/21 11:03:39;;;;;;;8.82;4.18;;;46.10;34.30;;;;;;5074468;28;20429;-77
2021/06/21 11:06:07;;;;;;;9.75;4.68;;;46.30;34.10;;;;;;5075702;28;20033;-77
2021/06/21 11:08:38;;;;;;;9.45;4.80;;;46.50;34.00;;;;;;5075765;28;20039;-77
2021/06/21 11:11:33;;;;;;;12.68;4.65;;;46.80;33.90;;;;;;5073867;28;20021;-76
2021/06/21 11:14:07;;;;;;;11.35;5.00;;;47.00;33.90;;;;;;5075253;28;20466;-76
2021/06/21 11:16:34;;;;;;;6.15;4.65;;;47.20;33.80;;;;;;5075469;28;20033;-77
2021/06/21 11:19:21;;;;;;;11.55;4.65;;;47.40;33.70;;;;;;5075619;28;20028;-77
2021/06/21 11:21:53;;;;;;;10.13;4.30;;;47.40;33.40;;;;;;5075303;28;20063;-76
2021/06/21 11:24:38;;;;;;;9.45;4.82;;;47.40;33.30;;;;;;5075002;28;20458;-78
2021/06/21 11:27:06;;;;;;;6.40;4.20;;;47.50;33.20;;;;;;5075198;28;20041;-77
2021/06/21 11:29:53;;;;;;;9.00;4.78;;;47.60;33.20;;;;;;5075230;28;20086;-77
2021/06/21 11:32:19;;;;;;;7.95;4.57;;;47.80;33.10;;;;;;5074888;28;20039;-76
2021/06/21 11:34:48;;;;;;;10.80;5.13;;;48.00;33.10;;;;;;5074883;28;20056;-75
2021/06/21 11:37:51;;;;;;;9.40;4.40;;;48.00;32.90;;;;;;5075274;28;20374;-76
2021/06/21 11:40:21;;;;;;;10.63;4.70;;;48.10;32.60;;;;;;5090138;28;20025;-76
2021/06/21 11:43:03;;;;;;;13.40;4.32;;;48.20;32.60;;;;;;5074546;28;20020;-76
2021/06/21 11:45:53;;;;;;;8.23;4.97;;;48.30;32.50;;;;;;5074747;28;20036;-76
2021/06/21 11:48:33;;;;;;;9.68;4.30;;;48.20;32.70;;;;;;5074439;28;20043;-76
2021/06/21 11:51:13;;;;;;;11.68;5.57;;;48.20;32.80;;;;;;5074468;28;20025;-76
2021/06/21 11:53:42;;;;;;;9.45;4.90;;;48.20;32.60;;;;;;5074826;28;20025;-76
2021/06/21 11:56:08;;;;;;;9.20;4.10;;;48.20;32.70;;;;;;5074783;28;20036;-76
2021/06/21 11:58:34;;;;;;;9.10;3.60;;;48.20;32.50;;;;;;5074643;28;20414;-76
2021/06/21 12:01:13;;;;;;;9.23;4.53;;;48.30;32.40;;;;;;5074535;28;20058;-76
2021/06/21 12:03:43;;;;;;;9.80;4.15;;;48.40;32.50;;;;;;5074012;28;20419;-77
2021/06/21 12:06:17;;;;;;;10.57;3.92;;;48.50;32.60;;;;;;5074112;28;20064;-77
2021/06/21 12:08:44;;;;;;;6.80;4.35;;;48.60;32.70;;;;;;5073894;28;20024;-77
2021/06/21 12:11:17;;;;;;;8.95;3.95;;;48.90;32.70;;;;;;5073930;28;20035;-77
2021/06/21 12:13:53;;;;;;;7.30;4.05;;;48.70;32.40;;;;;;5074040;28;20042;-75
2021/06/21 12:16:19;;;;;;;9.38;4.18;;;48.50;32.50;;;;;;5074164;28;20022;-75
2021/06/21 12:19:11;;;;;;;8.10;4.05;;;48.30;32.60;;;;;;5073900;28;20086;-76
2021/06/21 12:21:42;;;;;;;10.40;4.07;;;48.10;32.70;;;;;;5071302;28;20445;-76
2021/06/21 12:24:17;;;;;;;8.38;4.20;;;48.00;32.90;;;;;;5073446;28;20102;-76
2021/06/21 12:26:44;;;;;;;7.93;4.07;;;48.20;33.00;;;;;;5073688;28;20032;-76
2021/06/21 12:29:19;;;;;;;7.30;4.15;;;48.30;33.00;;;;;;5074206;28;20090;-75
2021/06/21 12:32:02;;;;;;;10.63;4.22;;;48.30;33.00;;;;;;5073991;28;20090;-75
2021/06/21 12:34:42;;;;;;;;;;;48.40;33.00;;;;;;5074051;28;20020;-76
2021/06/21 12:37:17;;;;;;;10.30;4.88;;;48.60;33.40;;;;;;5073754;28;20350;-77
2021/06/21 12:39:44;;;;;;;5.90;4.05;;;49.00;32.90;;;;;;5073706;28;20480;-76
2021/06/21 12:42:12;;;;;;;6.88;3.95;;;49.20;32.80;;;;;;5073979;28;20425;-76
2021/06/21 12:44:38;;;;;;;8.02;4.65;;;49.10;32.70;;;;;;5058881;28;20040;-76
2021/06/21 12:47:28;;;;;;;7.50;4.78;;;49.10;32.80;;;;;;5072867;28;20064;-77
2021/06/21 12:50:02;;;;;;;13.75;5.00;;;49.10;32.90;;;;;;5071441;28;20043;-77
2021/06/21 12:52:28;;;;;;;13.00;4.53;;;49.20;33.10;;;;;;5048349;28;20544;-76
2021/06/21 12:54:56;;;;;;;12.27;4.47;;;49.20;33.00;;;;;;5072784;28;20028;-75
2021/06/21 12:57:22;;;;;;;7.20;4.10;;;49.30;32.80;;;;;;5073494;28;20052;-76
2021/06/21 13:03:17;;;;;;;10.23;4.20;;;49.30;32.60;;;;;;5072574;28;20480;-77
2021/06/21 13:05:45;;;;;;;6.70;4.35;;;49.20;32.90;;;;;;5071233;28;20040;-76
2021/06/21 13:08:13;;;;;;;9.77;4.32;;;49.20;33.00;;;;;;5071787;28;20028;-78